sensor_id;sensor_type;location;lat;lon;timestamp;temperature;humidity
5392;DHT22;2719;53.624;9.786;2024-01-25T00:01:13;7.60;99.90
5392;DHT22;2719;53.624;9.786;2024-01-25T00:03:41;7.60;99.90
5392;DHT22;2719;53.624;9.786;2024-01-25T00:06:07;7.60;99.90
5392;DHT22;2719;53.624;9.786;2024-01-25T00:08:34;7.60;99.90
5392;DHT22;2719;53.624;9.786;2024-01-25T00:11:02;7.60;99.90
5392;DHT22;2719;53.624;9.786;2024-01-25T00:13:29;7.60;99.90
5392;DHT22;2719;53.624;9.786;2024-01-25T00:15:56;7.50;99.90
5392;DHT22;2719;53.624;9.786;2024-01-25T00:18:23;7.60;99.90
5392;DHT22;2719;53.624;9.786;2024-01-25T00:20:51;7.50;99.90
5392;DHT22;2719;53.624;9.786;2024-01-25T00:23:18;7.60;99.90
5392;DHT22;2719;53.624;9.786;2024-01-25T00:25:45;7.50;99.90
5392;DHT22;2719;53.624;9.786;2024-01-25T00:28:12;7.50;99.90
5392;DHT22;2719;53.624;9.786;2024-01-25T00:30:39;7.60;99.90
5392;DHT22;2719;53.624;9.786;2024-01-25T00:33:05;7.50;99.90
5392;DHT22;2719;53.624;9.786;2024-01-25T00:35:33;7.50;99.90
5392;DHT22;2719;53.624;9.786;2024-01-25T00:38:01;7.50;99.90
5392;DHT22;2719;53.624;9.786;2024-01-25T00:40:29;7.50;99.90
5392;DHT22;2719;53.624;9.786;2024-01-25T00:42:56;7.40;99.90
5392;DHT22;2719;53.624;9.786;2024-01-25T00:45:23;7.50;99.90
5392;DHT22;2719;53.624;9.786;2024-01-25T00:47:51;7.50;99.90
5392;DHT22;2719;53.624;9.786;2024-01-25T00:50:19;7.40;99.90
5392;DHT22;2719;53.624;9.786;2024-01-25T00:52:49;7.40;99.90
5392;DHT22;2719;53.624;9.786;2024-01-25T00:55:18;7.40;99.90
5392;DHT22;2719;53.624;9.786;2024-01-25T00:57:45;7.40;99.90
5392;DHT22;2719;53.624;9.786;2024-01-25T01:00:13;7.40;99.90
5392;DHT22;2719;53.624;9.786;2024-01-25T01:02:42;7.40;99.90
5392;DHT22;2719;53.624;9.786;2024-01-25T01:05:10;7.40;99.90
5392;DHT22;2719;53.624;9.786;2024-01-25T01:07:37;7.40;99.90
5392;DHT22;2719;53.624;9.786;2024-01-25T01:10:06;7.40;99.90
5392;DHT22;2719;53.624;9.786;2024-01-25T01:12:34;7.40;99.90
5392;DHT22;2719;53.624;9.786;2024-01-25T01:15:00;7.40;99.90
5392;DHT22;2719;53.624;9.786;2024-01-25T01:17:28;7.40;99.90
5392;DHT22;2719;53.624;9.786;2024-01-25T01:19:54;7.40;99.90
5392;DHT22;2719;53.624;9.786;2024-01-25T01:22:21;7.40;99.90
5392;DHT22;2719;53.624;9.786;2024-01-25T01:24:47;7.30;99.90
5392;DHT22;2719;53.624;9.786;2024-01-25T01:27:14;7.30;99.90
5392;DHT22;2719;53.624;9.786;2024-01-25T01:29:42;7.30;99.90
5392;DHT22;2719;53.624;9.786;2024-01-25T01:32:09;7.30;99.90
5392;DHT22;2719;53.624;9.786;2024-01-25T01:34:35;7.30;99.90
5392;DHT22;2719;53.624;9.786;2024-01-25T01:37:02;7.30;99.90
5392;DHT22;2719;53.624;9.786;2024-01-25T01:39:29;7.40;99.90
5392;DHT22;2719;53.624;9.786;2024-01-25T01:41:56;7.30;99.90
5392;DHT22;2719;53.624;9.786;2024-01-25T01:44:22;7.30;99.90
5392;DHT22;2719;53.624;9.786;2024-01-25T01:46:50;7.30;99.90
5392;DHT22;2719;53.624;9.786;2024-01-25T01:49:17;7.30;99.90
5392;DHT22;2719;53.624;9.786;2024-01-25T01:51:45;7.30;99.90
5392;DHT22;2719;53.624;9.786;2024-01-25T01:54:12;7.30;99.90
5392;DHT22;2719;53.624;9.786;2024-01-25T01:56:38;7.30;99.90
5392;DHT22;2719;53.624;9.786;2024-01-25T01:59:08;7.20;99.90
5392;DHT22;2719;53.624;9.786;2024-01-25T02:01:35;7.30;99.90
5392;DHT22;2719;53.624;9.786;2024-01-25T02:04:04;7.20;99.90
5392;DHT22;2719;53.624;9.786;2024-01-25T02:06:31;7.20;99.90
5392;DHT22;2719;53.624;9.786;2024-01-25T02:08:58;7.20;99.90
5392;DHT22;2719;53.624;9.786;2024-01-25T02:11:25;7.20;99.90
5392;DHT22;2719;53.624;9.786;2024-01-25T02:13:51;7.20;99.90
5392;DHT22;2719;53.624;9.786;2024-01-25T02:16:18;7.20;99.90
5392;DHT22;2719;53.624;9.786;2024-01-25T02:18:45;7.20;99.90
5392;DHT22;2719;53.624;9.786;2024-01-25T02:21:13;7.20;99.90
5392;DHT22;2719;53.624;9.786;2024-01-25T02:23:41;7.20;99.90
5392;DHT22;2719;53.624;9.786;2024-01-25T02:26:08;7.30;99.90
5392;DHT22;2719;53.624;9.786;2024-01-25T02:28:34;7.20;99.90
5392;DHT22;2719;53.624;9.786;2024-01-25T02:31:02;7.30;99.90
5392;DHT22;2719;53.624;9.786;2024-01-25T02:33:29;7.20;99.90
5392;DHT22;2719;53.624;9.786;2024-01-25T02:35:55;7.30;99.90
5392;DHT22;2719;53.624;9.786;2024-01-25T02:38:22;7.30;99.90
5392;DHT22;2719;53.624;9.786;2024-01-25T02:40:50;7.30;99.90
5392;DHT22;2719;53.624;9.786;2024-01-25T02:43:19;7.30;99.90
5392;DHT22;2719;53.624;9.786;2024-01-25T02:45:45;7.20;99.90
5392;DHT22;2719;53.624;9.786;2024-01-25T02:48:13;7.30;99.90
5392;DHT22;2719;53.624;9.786;2024-01-25T02:50:40;7.30;99.90
5392;DHT22;2719;53.624;9.786;2024-01-25T02:53:07;7.30;99.90
5392;DHT22;2719;53.624;9.786;2024-01-25T02:55:33;7.40;99.90
5392;DHT22;2719;53.624;9.786;2024-01-25T02:58:01;7.30;99.90
5392;DHT22;2719;53.624;9.786;2024-01-25T03:00:28;7.30;99.90
5392;DHT22;2719;53.624;9.786;2024-01-25T03:02:54;7.40;99.90
5392;DHT22;2719;53.624;9.786;2024-01-25T03:05:21;7.40;99.90
5392;DHT22;2719;53.624;9.786;2024-01-25T03:07:48;7.40;99.90
5392;DHT22;2719;53.624;9.786;2024-01-25T03:10:14;7.30;99.90
5392;DHT22;2719;53.624;9.786;2024-01-25T03:12:41;7.30;99.90
5392;DHT22;2719;53.624;9.786;2024-01-25T03:15:10;7.30;99.90
5392;DHT22;2719;53.624;9.786;2024-01-25T03:17:37;7.30;99.90
5392;DHT22;2719;53.624;9.786;2024-01-25T03:20:05;7.30;99.90
5392;DHT22;2719;53.624;9.786;2024-01-25T03:22:31;7.30;99.90
5392;DHT22;2719;53.624;9.786;2024-01-25T03:24:58;7.30;99.90
5392;DHT22;2719;53.624;9.786;2024-01-25T03:27:25;7.30;99.90
5392;DHT22;2719;53.624;9.786;2024-01-25T03:29:51;7.30;99.90
5392;DHT22;2719;53.624;9.786;2024-01-25T03:32:19;7.30;99.90
5392;DHT22;2719;53.624;9.786;2024-01-25T03:34:46;7.30;99.90
5392;DHT22;2719;53.624;9.786;2024-01-25T03:37:13;7.30;99.90
5392;DHT22;2719;53.624;9.786;2024-01-25T03:39:39;7.40;99.90
5392;DHT22;2719;53.624;9.786;2024-01-25T03:42:06;7.40;99.90
5392;DHT22;2719;53.624;9.786;2024-01-25T03:44:33;7.40;99.90
5392;DHT22;2719;53.624;9.786;2024-01-25T03:46:59;7.40;99.90
5392;DHT22;2719;53.624;9.786;2024-01-25T03:49:27;7.40;99.90
5392;DHT22;2719;53.624;9.786;2024-01-25T03:51:54;7.50;99.90
5392;DHT22;2719;53.624;9.786;2024-01-25T03:54:20;7.50;99.90
5392;DHT22;2719;53.624;9.786;2024-01-25T03:56:47;7.40;99.90
5392;DHT22;2719;53.624;9.786;2024-01-25T03:59:13;7.50;99.90
5392;DHT22;2719;53.624;9.786;2024-01-25T04:01:44;7.40;99.90
5392;DHT22;2719;53.624;9.786;2024-01-25T04:04:12;7.50;99.90
5392;DHT22;2719;53.624;9.786;2024-01-25T04:06:42;7.40;99.90
5392;DHT22;2719;53.624;9.786;2024-01-25T04:09:09;7.40;99.90
5392;DHT22;2719;53.624;9.786;2024-01-25T04:11:36;7.50;99.90
5392;DHT22;2719;53.624;9.786;2024-01-25T04:14:03;7.40;99.90
5392;DHT22;2719;53.624;9.786;2024-01-25T04:16:31;7.50;99.90
5392;DHT22;2719;53.624;9.786;2024-01-25T04:18:58;7.50;99.90
5392;DHT22;2719;53.624;9.786;2024-01-25T04:21:23;7.50;99.90
5392;DHT22;2719;53.624;9.786;2024-01-25T04:23:51;7.50;99.90
5392;DHT22;2719;53.624;9.786;2024-01-25T04:26:18;7.50;99.90
5392;DHT22;2719;53.624;9.786;2024-01-25T04:28:45;7.50;99.90
5392;DHT22;2719;53.624;9.786;2024-01-25T04:31:11;7.50;99.90
5392;DHT22;2719;53.624;9.786;2024-01-25T04:33:38;7.40;99.90
5392;DHT22;2719;53.624;9.786;2024-01-25T04:36:06;7.40;99.90
5392;DHT22;2719;53.624;9.786;2024-01-25T04:38:32;7.40;99.90
5392;DHT22;2719;53.624;9.786;2024-01-25T04:41:00;7.40;99.90
5392;DHT22;2719;53.624;9.786;2024-01-25T04:43:27;7.40;99.90
5392;DHT22;2719;53.624;9.786;2024-01-25T04:45:53;7.40;99.90
5392;DHT22;2719;53.624;9.786;2024-01-25T04:48:20;7.40;99.90
5392;DHT22;2719;53.624;9.786;2024-01-25T04:50:47;7.40;99.90
5392;DHT22;2719;53.624;9.786;2024-01-25T04:53:13;7.40;99.90
5392;DHT22;2719;53.624;9.786;2024-01-25T04:55:40;7.40;99.90
5392;DHT22;2719;53.624;9.786;2024-01-25T04:58:08;7.30;99.90
5392;DHT22;2719;53.624;9.786;2024-01-25T05:00:34;7.30;99.90
5392;DHT22;2719;53.624;9.786;2024-01-25T05:03:04;7.30;99.90
5392;DHT22;2719;53.624;9.786;2024-01-25T05:05:31;7.30;99.90
5392;DHT22;2719;53.624;9.786;2024-01-25T05:07:57;7.30;99.90
5392;DHT22;2719;53.624;9.786;2024-01-25T05:10:24;7.30;99.90
5392;DHT22;2719;53.624;9.786;2024-01-25T05:12:51;7.30;99.90
5392;DHT22;2719;53.624;9.786;2024-01-25T05:15:19;7.20;99.90
5392;DHT22;2719;53.624;9.786;2024-01-25T05:17:45;7.20;99.90
5392;DHT22;2719;53.624;9.786;2024-01-25T05:20:12;7.30;99.90
5392;DHT22;2719;53.624;9.786;2024-01-25T05:22:40;7.30;99.90
5392;DHT22;2719;53.624;9.786;2024-01-25T05:25:08;7.20;99.90
5392;DHT22;2719;53.624;9.786;2024-01-25T05:27:35;7.20;99.90
5392;DHT22;2719;53.624;9.786;2024-01-25T05:30:02;7.30;99.90
5392;DHT22;2719;53.624;9.786;2024-01-25T05:32:31;7.20;99.90
5392;DHT22;2719;53.624;9.786;2024-01-25T05:34:58;7.30;99.90
5392;DHT22;2719;53.624;9.786;2024-01-25T05:37:24;7.30;99.90
5392;DHT22;2719;53.624;9.786;2024-01-25T05:39:51;7.30;99.90
5392;DHT22;2719;53.624;9.786;2024-01-25T05:42:18;7.30;99.90
5392;DHT22;2719;53.624;9.786;2024-01-25T05:44:45;7.30;99.90
5392;DHT22;2719;53.624;9.786;2024-01-25T05:47:11;7.20;99.90
5392;DHT22;2719;53.624;9.786;2024-01-25T05:49:40;7.30;99.90
5392;DHT22;2719;53.624;9.786;2024-01-25T05:52:06;7.30;99.90
5392;DHT22;2719;53.624;9.786;2024-01-25T05:54:33;7.30;99.90
5392;DHT22;2719;53.624;9.786;2024-01-25T05:57:00;7.40;99.90
5392;DHT22;2719;53.624;9.786;2024-01-25T05:59:26;7.30;99.90
5392;DHT22;2719;53.624;9.786;2024-01-25T06:01:53;7.30;99.90
5392;DHT22;2719;53.624;9.786;2024-01-25T06:04:19;7.40;99.90
5392;DHT22;2719;53.624;9.786;2024-01-25T06:06:47;7.40;99.90
5392;DHT22;2719;53.624;9.786;2024-01-25T06:09:14;7.30;99.90
5392;DHT22;2719;53.624;9.786;2024-01-25T06:11:41;7.30;99.90
5392;DHT22;2719;53.624;9.786;2024-01-25T06:14:08;7.30;99.90
5392;DHT22;2719;53.624;9.786;2024-01-25T06:16:34;7.30;99.90
5392;DHT22;2719;53.624;9.786;2024-01-25T06:19:02;7.30;99.90
5392;DHT22;2719;53.624;9.786;2024-01-25T06:21:29;7.30;99.90
5392;DHT22;2719;53.624;9.786;2024-01-25T06:23:57;7.30;99.90
5392;DHT22;2719;53.624;9.786;2024-01-25T06:26:24;7.30;99.90
5392;DHT22;2719;53.624;9.786;2024-01-25T06:28:50;7.30;99.90
5392;DHT22;2719;53.624;9.786;2024-01-25T06:31:17;7.20;99.90
5392;DHT22;2719;53.624;9.786;2024-01-25T06:33:43;7.30;99.90
5392;DHT22;2719;53.624;9.786;2024-01-25T06:36:12;7.20;99.90
5392;DHT22;2719;53.624;9.786;2024-01-25T06:38:40;7.20;99.90
5392;DHT22;2719;53.624;9.786;2024-01-25T06:41:08;7.20;99.90
5392;DHT22;2719;53.624;9.786;2024-01-25T06:43:35;7.10;99.90
5392;DHT22;2719;53.624;9.786;2024-01-25T06:46:01;7.20;99.90
5392;DHT22;2719;53.624;9.786;2024-01-25T06:48:28;7.10;99.90
5392;DHT22;2719;53.624;9.786;2024-01-25T06:50:55;7.00;99.90
5392;DHT22;2719;53.624;9.786;2024-01-25T06:53:22;7.00;99.90
5392;DHT22;2719;53.624;9.786;2024-01-25T06:55:49;7.10;99.90
5392;DHT22;2719;53.624;9.786;2024-01-25T06:58:17;7.20;99.90
5392;DHT22;2719;53.624;9.786;2024-01-25T07:00:43;7.20;99.90
5392;DHT22;2719;53.624;9.786;2024-01-25T07:03:12;7.10;99.90
5392;DHT22;2719;53.624;9.786;2024-01-25T07:05:38;7.00;99.90
5392;DHT22;2719;53.624;9.786;2024-01-25T07:08:06;7.10;99.90
5392;DHT22;2719;53.624;9.786;2024-01-25T07:10:34;7.10;99.90
5392;DHT22;2719;53.624;9.786;2024-01-25T07:13:01;7.00;99.90
5392;DHT22;2719;53.624;9.786;2024-01-25T07:15:29;7.10;99.90
5392;DHT22;2719;53.624;9.786;2024-01-25T07:17:55;7.10;99.90
5392;DHT22;2719;53.624;9.786;2024-01-25T07:20:22;7.20;99.90
5392;DHT22;2719;53.624;9.786;2024-01-25T07:22:49;7.10;99.90
5392;DHT22;2719;53.624;9.786;2024-01-25T07:25:15;7.10;99.90
5392;DHT22;2719;53.624;9.786;2024-01-25T07:27:44;7.10;99.90
5392;DHT22;2719;53.624;9.786;2024-01-25T07:30:12;7.20;99.90
5392;DHT22;2719;53.624;9.786;2024-01-25T07:32:40;7.10;99.90
5392;DHT22;2719;53.624;9.786;2024-01-25T07:35:07;7.20;99.90
5392;DHT22;2719;53.624;9.786;2024-01-25T07:37:35;7.20;99.90
5392;DHT22;2719;53.624;9.786;2024-01-25T07:40:01;7.20;99.90
5392;DHT22;2719;53.624;9.786;2024-01-25T07:42:29;7.20;99.90
5392;DHT22;2719;53.624;9.786;2024-01-25T07:44:56;7.20;99.90
5392;DHT22;2719;53.624;9.786;2024-01-25T07:47:22;7.20;99.90
5392;DHT22;2719;53.624;9.786;2024-01-25T07:49:51;7.20;99.90
5392;DHT22;2719;53.624;9.786;2024-01-25T07:52:17;7.20;99.90
5392;DHT22;2719;53.624;9.786;2024-01-25T07:54:44;7.20;99.90
5392;DHT22;2719;53.624;9.786;2024-01-25T07:57:10;7.20;99.90
5392;DHT22;2719;53.624;9.786;2024-01-25T07:59:37;7.20;99.90
5392;DHT22;2719;53.624;9.786;2024-01-25T08:02:04;7.20;99.90
5392;DHT22;2719;53.624;9.786;2024-01-25T08:04:30;7.30;99.90
5392;DHT22;2719;53.624;9.786;2024-01-25T08:06:58;7.30;99.90
5392;DHT22;2719;53.624;9.786;2024-01-25T08:09:25;7.20;99.90
5392;DHT22;2719;53.624;9.786;2024-01-25T08:11:52;7.10;99.90
5392;DHT22;2719;53.624;9.786;2024-01-25T08:14:18;7.20;99.90
5392;DHT22;2719;53.624;9.786;2024-01-25T08:16:45;7.20;99.90
5392;DHT22;2719;53.624;9.786;2024-01-25T08:19:12;7.30;99.90
5392;DHT22;2719;53.624;9.786;2024-01-25T08:21:38;7.30;99.90
5392;DHT22;2719;53.624;9.786;2024-01-25T08:24:06;7.30;99.90
5392;DHT22;2719;53.624;9.786;2024-01-25T08:26:33;7.30;99.90
5392;DHT22;2719;53.624;9.786;2024-01-25T08:29:01;7.20;99.90
5392;DHT22;2719;53.624;9.786;2024-01-25T08:31:27;7.10;99.90
5392;DHT22;2719;53.624;9.786;2024-01-25T08:33:54;7.10;99.90
5392;DHT22;2719;53.624;9.786;2024-01-25T08:36:21;7.20;99.90
5392;DHT22;2719;53.624;9.786;2024-01-25T08:38:48;7.10;99.90
5392;DHT22;2719;53.624;9.786;2024-01-25T08:41:16;7.20;99.90
5392;DHT22;2719;53.624;9.786;2024-01-25T08:43:42;7.30;99.90
5392;DHT22;2719;53.624;9.786;2024-01-25T08:46:09;7.30;99.90
5392;DHT22;2719;53.624;9.786;2024-01-25T08:48:36;7.30;99.90
5392;DHT22;2719;53.624;9.786;2024-01-25T08:51:03;7.30;99.90
5392;DHT22;2719;53.624;9.786;2024-01-25T08:53:29;7.30;99.90
5392;DHT22;2719;53.624;9.786;2024-01-25T08:55:56;7.20;99.90
5392;DHT22;2719;53.624;9.786;2024-01-25T08:58:24;7.20;99.90
5392;DHT22;2719;53.624;9.786;2024-01-25T09:00:51;7.20;99.90
5392;DHT22;2719;53.624;9.786;2024-01-25T09:03:17;7.10;99.90
5392;DHT22;2719;53.624;9.786;2024-01-25T09:05:44;7.10;99.90
5392;DHT22;2719;53.624;9.786;2024-01-25T09:08:11;7.20;99.90
5392;DHT22;2719;53.624;9.786;2024-01-25T09:10:41;7.20;99.90
5392;DHT22;2719;53.624;9.786;2024-01-25T09:13:08;7.20;99.90
5392;DHT22;2719;53.624;9.786;2024-01-25T09:15:36;7.20;99.90
5392;DHT22;2719;53.624;9.786;2024-01-25T09:18:03;7.30;99.90
5392;DHT22;2719;53.624;9.786;2024-01-25T09:20:30;7.30;99.90
5392;DHT22;2719;53.624;9.786;2024-01-25T09:22:56;7.30;99.90
5392;DHT22;2719;53.624;9.786;2024-01-25T09:25:23;7.30;99.90
5392;DHT22;2719;53.624;9.786;2024-01-25T09:27:50;7.30;99.90
5392;DHT22;2719;53.624;9.786;2024-01-25T09:30:17;7.30;99.90
5392;DHT22;2719;53.624;9.786;2024-01-25T09:32:45;7.20;99.90
5392;DHT22;2719;53.624;9.786;2024-01-25T09:35:12;7.30;99.90
5392;DHT22;2719;53.624;9.786;2024-01-25T09:37:38;7.30;99.90
5392;DHT22;2719;53.624;9.786;2024-01-25T09:40:06;7.30;99.90
5392;DHT22;2719;53.624;9.786;2024-01-25T09:42:33;7.30;99.90
5392;DHT22;2719;53.624;9.786;2024-01-25T09:45:02;7.40;99.90
5392;DHT22;2719;53.624;9.786;2024-01-25T09:47:31;7.40;99.90
5392;DHT22;2719;53.624;9.786;2024-01-25T09:49:59;7.40;99.90
5392;DHT22;2719;53.624;9.786;2024-01-25T09:52:27;7.40;99.90
5392;DHT22;2719;53.624;9.786;2024-01-25T09:54:54;7.60;99.90
5392;DHT22;2719;53.624;9.786;2024-01-25T09:57:24;7.60;99.90
5392;DHT22;2719;53.624;9.786;2024-01-25T09:59:52;7.60;99.90
5392;DHT22;2719;53.624;9.786;2024-01-25T10:02:19;7.50;99.90
5392;DHT22;2719;53.624;9.786;2024-01-25T10:04:49;7.50;99.90
5392;DHT22;2719;53.624;9.786;2024-01-25T10:07:35;7.60;99.90
5392;DHT22;2719;53.624;9.786;2024-01-25T10:10:02;7.60;99.90
5392;DHT22;2719;53.624;9.786;2024-01-25T10:12:30;7.60;99.90
5392;DHT22;2719;53.624;9.786;2024-01-25T10:14:57;7.50;99.90
5392;DHT22;2719;53.624;9.786;2024-01-25T10:17:23;7.60;99.90
5392;DHT22;2719;53.624;9.786;2024-01-25T10:19:50;7.60;99.90
5392;DHT22;2719;53.624;9.786;2024-01-25T10:22:18;7.70;99.90
5392;DHT22;2719;53.624;9.786;2024-01-25T10:24:45;7.70;99.90
5392;DHT22;2719;53.624;9.786;2024-01-25T10:27:12;7.60;99.90
5392;DHT22;2719;53.624;9.786;2024-01-25T10:29:39;7.60;99.90
5392;DHT22;2719;53.624;9.786;2024-01-25T10:32:06;7.70;99.90
5392;DHT22;2719;53.624;9.786;2024-01-25T10:34:35;7.70;99.90
5392;DHT22;2719;53.624;9.786;2024-01-25T10:37:02;7.80;99.90
5392;DHT22;2719;53.624;9.786;2024-01-25T10:39:31;7.80;99.90
5392;DHT22;2719;53.624;9.786;2024-01-25T10:41:59;7.80;99.90
5392;DHT22;2719;53.624;9.786;2024-01-25T10:44:26;7.90;99.90
5392;DHT22;2719;53.624;9.786;2024-01-25T10:46:53;7.90;99.90
5392;DHT22;2719;53.624;9.786;2024-01-25T10:49:20;7.90;99.90
5392;DHT22;2719;53.624;9.786;2024-01-25T10:51:47;7.80;99.90
5392;DHT22;2719;53.624;9.786;2024-01-25T10:54:15;7.90;99.90
5392;DHT22;2719;53.624;9.786;2024-01-25T10:56:44;7.90;99.90
5392;DHT22;2719;53.624;9.786;2024-01-25T10:59:13;7.90;99.90
5392;DHT22;2719;53.624;9.786;2024-01-25T11:01:44;7.90;99.90
5392;DHT22;2719;53.624;9.786;2024-01-25T11:04:14;7.90;99.90
5392;DHT22;2719;53.624;9.786;2024-01-25T11:06:43;7.90;99.90
5392;DHT22;2719;53.624;9.786;2024-01-25T11:09:16;7.90;99.90
5392;DHT22;2719;53.624;9.786;2024-01-25T11:11:46;8.00;99.90
5392;DHT22;2719;53.624;9.786;2024-01-25T11:14:14;7.90;99.90
5392;DHT22;2719;53.624;9.786;2024-01-25T11:16:42;7.90;99.90
5392;DHT22;2719;53.624;9.786;2024-01-25T11:19:16;7.90;99.90
5392;DHT22;2719;53.624;9.786;2024-01-25T11:21:44;7.80;99.90
5392;DHT22;2719;53.624;9.786;2024-01-25T11:24:12;7.80;99.90
5392;DHT22;2719;53.624;9.786;2024-01-25T11:26:40;7.80;99.90
5392;DHT22;2719;53.624;9.786;2024-01-25T11:29:08;7.90;99.90
5392;DHT22;2719;53.624;9.786;2024-01-25T11:31:34;7.90;99.90
5392;DHT22;2719;53.624;9.786;2024-01-25T11:34:01;7.90;99.90
5392;DHT22;2719;53.624;9.786;2024-01-25T11:36:28;7.90;99.90
5392;DHT22;2719;53.624;9.786;2024-01-25T11:38:55;8.00;99.90
5392;DHT22;2719;53.624;9.786;2024-01-25T11:41:22;8.00;99.90
5392;DHT22;2719;53.624;9.786;2024-01-25T11:43:49;8.00;99.90
5392;DHT22;2719;53.624;9.786;2024-01-25T11:46:18;7.90;99.90
5392;DHT22;2719;53.624;9.786;2024-01-25T11:48:44;7.90;99.90
5392;DHT22;2719;53.624;9.786;2024-01-25T11:51:11;8.00;99.90
5392;DHT22;2719;53.624;9.786;2024-01-25T11:53:38;8.00;99.90
5392;DHT22;2719;53.624;9.786;2024-01-25T11:56:07;8.00;99.90
5392;DHT22;2719;53.624;9.786;2024-01-25T11:58:36;8.00;99.90
5392;DHT22;2719;53.624;9.786;2024-01-25T12:01:03;8.00;99.90
5392;DHT22;2719;53.624;9.786;2024-01-25T12:03:35;8.00;99.90
5392;DHT22;2719;53.624;9.786;2024-01-25T12:06:03;7.90;99.90
5392;DHT22;2719;53.624;9.786;2024-01-25T12:08:31;7.90;99.90
5392;DHT22;2719;53.624;9.786;2024-01-25T12:11:05;8.00;99.90
5392;DHT22;2719;53.624;9.786;2024-01-25T12:13:33;8.00;99.90
5392;DHT22;2719;53.624;9.786;2024-01-25T12:16:00;8.00;99.90
5392;DHT22;2719;53.624;9.786;2024-01-25T12:18:28;7.90;99.90
5392;DHT22;2719;53.624;9.786;2024-01-25T12:20:58;7.80;99.90
5392;DHT22;2719;53.624;9.786;2024-01-25T12:23:30;7.90;99.90
5392;DHT22;2719;53.624;9.786;2024-01-25T12:25:59;7.90;99.90
5392;DHT22;2719;53.624;9.786;2024-01-25T12:28:26;7.90;99.90
5392;DHT22;2719;53.624;9.786;2024-01-25T12:30:52;7.90;99.90
5392;DHT22;2719;53.624;9.786;2024-01-25T12:33:19;8.00;99.90
5392;DHT22;2719;53.624;9.786;2024-01-25T12:35:46;7.90;99.90
5392;DHT22;2719;53.624;9.786;2024-01-25T12:38:14;7.90;99.90
5392;DHT22;2719;53.624;9.786;2024-01-25T12:40:41;8.10;99.90
5392;DHT22;2719;53.624;9.786;2024-01-25T12:43:08;8.10;99.90
5392;DHT22;2719;53.624;9.786;2024-01-25T12:45:34;8.10;99.90
5392;DHT22;2719;53.624;9.786;2024-01-25T12:48:01;8.10;99.90
5392;DHT22;2719;53.624;9.786;2024-01-25T12:50:28;8.10;99.90
5392;DHT22;2719;53.624;9.786;2024-01-25T12:52:54;8.20;99.90
5392;DHT22;2719;53.624;9.786;2024-01-25T12:55:22;8.10;99.90
5392;DHT22;2719;53.624;9.786;2024-01-25T12:57:49;8.10;99.90
5392;DHT22;2719;53.624;9.786;2024-01-25T13:00:16;8.20;99.90
5392;DHT22;2719;53.624;9.786;2024-01-25T13:02:43;8.30;99.90
5392;DHT22;2719;53.624;9.786;2024-01-25T13:05:09;8.20;99.90
5392;DHT22;2719;53.624;9.786;2024-01-25T13:07:36;8.20;99.90
5392;DHT22;2719;53.624;9.786;2024-01-25T13:10:03;8.20;99.90
5392;DHT22;2719;53.624;9.786;2024-01-25T13:12:31;8.30;99.90
5392;DHT22;2719;53.624;9.786;2024-01-25T13:14:57;8.20;99.90
5392;DHT22;2719;53.624;9.786;2024-01-25T13:17:24;8.20;99.90
5392;DHT22;2719;53.624;9.786;2024-01-25T13:19:53;8.10;99.90
5392;DHT22;2719;53.624;9.786;2024-01-25T13:22:19;8.20;99.90
5392;DHT22;2719;53.624;9.786;2024-01-25T13:24:47;8.20;99.90
5392;DHT22;2719;53.624;9.786;2024-01-25T13:27:14;8.30;99.90
5392;DHT22;2719;53.624;9.786;2024-01-25T13:29:42;8.30;99.90
5392;DHT22;2719;53.624;9.786;2024-01-25T13:32:09;8.40;99.90
5392;DHT22;2719;53.624;9.786;2024-01-25T13:34:36;8.50;99.90
5392;DHT22;2719;53.624;9.786;2024-01-25T13:37:03;8.60;99.90
5392;DHT22;2719;53.624;9.786;2024-01-25T13:39:30;8.70;99.90
5392;DHT22;2719;53.624;9.786;2024-01-25T13:41:56;8.70;99.90
5392;DHT22;2719;53.624;9.786;2024-01-25T13:44:23;8.80;99.90
5392;DHT22;2719;53.624;9.786;2024-01-25T13:46:51;8.80;99.90
5392;DHT22;2719;53.624;9.786;2024-01-25T13:49:18;8.80;99.90
5392;DHT22;2719;53.624;9.786;2024-01-25T13:51:44;8.90;99.90
5392;DHT22;2719;53.624;9.786;2024-01-25T13:54:11;8.90;99.90
5392;DHT22;2719;53.624;9.786;2024-01-25T13:56:38;8.90;99.90
5392;DHT22;2719;53.624;9.786;2024-01-25T13:59:05;8.90;99.90
5392;DHT22;2719;53.624;9.786;2024-01-25T14:01:32;8.90;99.90
5392;DHT22;2719;53.624;9.786;2024-01-25T14:04:00;9.00;99.90
5392;DHT22;2719;53.624;9.786;2024-01-25T14:06:26;9.10;99.90
5392;DHT22;2719;53.624;9.786;2024-01-25T14:08:53;9.20;99.90
5392;DHT22;2719;53.624;9.786;2024-01-25T14:11:19;9.40;99.90
5392;DHT22;2719;53.624;9.786;2024-01-25T14:13:46;9.60;99.90
5392;DHT22;2719;53.624;9.786;2024-01-25T14:16:12;9.70;99.90
5392;DHT22;2719;53.624;9.786;2024-01-25T14:18:42;9.70;99.90
5392;DHT22;2719;53.624;9.786;2024-01-25T14:21:10;9.80;99.90
5392;DHT22;2719;53.624;9.786;2024-01-25T14:23:37;9.70;99.90
5392;DHT22;2719;53.624;9.786;2024-01-25T14:26:04;9.70;99.90
5392;DHT22;2719;53.624;9.786;2024-01-25T14:28:31;9.60;99.90
5392;DHT22;2719;53.624;9.786;2024-01-25T14:30:57;9.40;99.90
5392;DHT22;2719;53.624;9.786;2024-01-25T14:33:24;9.30;99.90
5392;DHT22;2719;53.624;9.786;2024-01-25T14:35:50;9.30;99.90
5392;DHT22;2719;53.624;9.786;2024-01-25T14:38:18;9.20;99.90
5392;DHT22;2719;53.624;9.786;2024-01-25T14:40:45;9.10;99.90
5392;DHT22;2719;53.624;9.786;2024-01-25T14:43:12;9.10;99.90
5392;DHT22;2719;53.624;9.786;2024-01-25T14:45:38;9.00;99.90
5392;DHT22;2719;53.624;9.786;2024-01-25T14:48:05;9.00;99.90
5392;DHT22;2719;53.624;9.786;2024-01-25T14:50:32;8.90;99.90
5392;DHT22;2719;53.624;9.786;2024-01-25T14:52:59;8.80;99.90
5392;DHT22;2719;53.624;9.786;2024-01-25T14:55:26;8.80;99.90
5392;DHT22;2719;53.624;9.786;2024-01-25T14:57:53;8.80;99.90
5392;DHT22;2719;53.624;9.786;2024-01-25T15:00:20;8.80;99.90
5392;DHT22;2719;53.624;9.786;2024-01-25T15:02:47;8.80;99.90
5392;DHT22;2719;53.624;9.786;2024-01-25T15:05:13;8.80;99.90
5392;DHT22;2719;53.624;9.786;2024-01-25T15:07:40;8.80;99.90
5392;DHT22;2719;53.624;9.786;2024-01-25T15:10:08;8.70;99.90
5392;DHT22;2719;53.624;9.786;2024-01-25T15:12:37;8.60;99.90
5392;DHT22;2719;53.624;9.786;2024-01-25T15:15:05;8.60;99.90
5392;DHT22;2719;53.624;9.786;2024-01-25T15:17:32;8.50;99.90
5392;DHT22;2719;53.624;9.786;2024-01-25T15:19:58;8.50;99.90
5392;DHT22;2719;53.624;9.786;2024-01-25T15:22:25;8.50;99.90
5392;DHT22;2719;53.624;9.786;2024-01-25T15:24:52;8.40;99.90
5392;DHT22;2719;53.624;9.786;2024-01-25T15:27:19;8.40;99.90
5392;DHT22;2719;53.624;9.786;2024-01-25T15:29:47;8.40;99.90
5392;DHT22;2719;53.624;9.786;2024-01-25T15:32:14;8.40;99.90
5392;DHT22;2719;53.624;9.786;2024-01-25T15:34:40;8.40;99.90
5392;DHT22;2719;53.624;9.786;2024-01-25T15:37:07;8.30;99.90
5392;DHT22;2719;53.624;9.786;2024-01-25T15:39:34;8.40;99.90
5392;DHT22;2719;53.624;9.786;2024-01-25T15:42:00;8.40;99.90
5392;DHT22;2719;53.624;9.786;2024-01-25T15:44:27;8.40;99.90
5392;DHT22;2719;53.624;9.786;2024-01-25T15:46:55;8.40;99.90
5392;DHT22;2719;53.624;9.786;2024-01-25T15:49:21;8.30;99.90
5392;DHT22;2719;53.624;9.786;2024-01-25T15:51:49;8.20;99.90
5392;DHT22;2719;53.624;9.786;2024-01-25T15:54:16;8.20;99.90
5392;DHT22;2719;53.624;9.786;2024-01-25T15:56:42;8.20;99.90
5392;DHT22;2719;53.624;9.786;2024-01-25T15:59:10;8.10;99.90
5392;DHT22;2719;53.624;9.786;2024-01-25T16:01:36;8.20;99.90
5392;DHT22;2719;53.624;9.786;2024-01-25T16:04:04;8.20;99.90
5392;DHT22;2719;53.624;9.786;2024-01-25T16:06:31;8.10;99.90
5392;DHT22;2719;53.624;9.786;2024-01-25T16:09:00;8.10;99.90
5392;DHT22;2719;53.624;9.786;2024-01-25T16:11:27;8.20;99.90
5392;DHT22;2719;53.624;9.786;2024-01-25T16:13:54;8.20;99.90
5392;DHT22;2719;53.624;9.786;2024-01-25T16:16:21;8.20;99.90